sensor_id;sensor_type;location;lat;lon;timestamp;pressure;altitude;pressure_sealevel;temperature
45034;BMP280;30771;47.988;-4.186;2023-07-31T06:02:33;98841.66;;;18.97
45034;BMP280;30771;47.988;-4.186;2023-07-31T06:05:02;98837.63;;;19.00
45034;BMP280;30771;47.988;-4.186;2023-07-31T06:07:27;98829.09;;;18.98
45034;BMP280;30771;47.988;-4.186;2023-07-31T06:09:53;98824.28;;;19.00
45034;BMP280;30771;47.988;-4.186;2023-07-31T06:12:20;98823.97;;;19.01
45034;BMP280;30771;47.988;-4.186;2023-07-31T06:14:45;98834.53;;;19.06
45034;BMP280;30771;47.988;-4.186;2023-07-31T06:17:11;98820.38;;;19.06
45034;BMP280;30771;47.988;-4.186;2023-07-31T06:19:36;98818.81;;;19.05
45034;BMP280;30771;47.988;-4.186;2023-07-31T06:22:02;98814.97;;;19.11
45034;BMP280;30771;47.988;-4.186;2023-07-31T06:24:28;98820.63;;;19.09
45034;BMP280;30771;47.988;-4.186;2023-07-31T06:26:53;98818.59;;;19.15
45034;BMP280;30771;47.988;-4.186;2023-07-31T06:29:18;98818.91;;;19.13
45034;BMP280;30771;47.988;-4.186;2023-07-31T06:31:44;98819.88;;;19.17
45034;BMP280;30771;47.988;-4.186;2023-07-31T06:34:09;98823.34;;;19.18
45034;BMP280;30771;47.988;-4.186;2023-07-31T06:36:35;98804.69;;;19.18
45034;BMP280;30771;47.988;-4.186;2023-07-31T06:39:00;98793.69;;;19.19
45034;BMP280;30771;47.988;-4.186;2023-07-31T06:41:25;98791.03;;;19.19
45034;BMP280;30771;47.988;-4.186;2023-07-31T06:43:51;98798.91;;;19.24
45034;BMP280;30771;47.988;-4.186;2023-07-31T06:46:16;98793.28;;;19.26
45034;BMP280;30771;47.988;-4.186;2023-07-31T06:48:41;98792.69;;;19.29
45034;BMP280;30771;47.988;-4.186;2023-07-31T06:51:07;98790.69;;;19.34
45034;BMP280;30771;47.988;-4.186;2023-07-31T06:53:32;98786.94;;;19.35
45034;BMP280;30771;47.988;-4.186;2023-07-31T06:55:57;98795.31;;;19.42
45034;BMP280;30771;47.988;-4.186;2023-07-31T06:58:23;98788.91;;;19.43
45034;BMP280;30771;47.988;-4.186;2023-07-31T07:00:48;98781.66;;;19.44
45034;BMP280;30771;47.988;-4.186;2023-07-31T07:03:19;98791.44;;;19.48
45034;BMP280;30771;47.988;-4.186;2023-07-31T07:05:45;98778.97;;;19.44
45034;BMP280;30771;47.988;-4.186;2023-07-31T07:08:11;98785.59;;;19.46
45034;BMP280;30771;47.988;-4.186;2023-07-31T07:10:36;98798.06;;;19.51
45034;BMP280;30771;47.988;-4.186;2023-07-31T07:13:02;98783.59;;;19.52
45034;BMP280;30771;47.988;-4.186;2023-07-31T07:15:27;98796.34;;;19.55
45034;BMP280;30771;47.988;-4.186;2023-07-31T07:17:54;98791.00;;;19.55
45034;BMP280;30771;47.988;-4.186;2023-07-31T07:20:19;98784.28;;;19.57
45034;BMP280;30771;47.988;-4.186;2023-07-31T07:22:45;98775.66;;;19.60
45034;BMP280;30771;47.988;-4.186;2023-07-31T07:25:10;98803.94;;;19.61
45034;BMP280;30771;47.988;-4.186;2023-07-31T07:27:36;98797.78;;;19.61
45034;BMP280;30771;47.988;-4.186;2023-07-31T07:30:01;98803.94;;;19.61
45034;BMP280;30771;47.988;-4.186;2023-07-31T07:32:26;98798.41;;;19.58
45034;BMP280;30771;47.988;-4.186;2023-07-31T07:34:52;98803.75;;;19.58
45034;BMP280;30771;47.988;-4.186;2023-07-31T07:37:17;98793.22;;;19.53
45034;BMP280;30771;47.988;-4.186;2023-07-31T07:39:43;98796.03;;;19.56
45034;BMP280;30771;47.988;-4.186;2023-07-31T07:42:08;98792.59;;;19.56
45034;BMP280;30771;47.988;-4.186;2023-07-31T07:44:34;98798.72;;;19.56
45034;BMP280;30771;47.988;-4.186;2023-07-31T07:46:59;98799.50;;;19.57
45034;BMP280;30771;47.988;-4.186;2023-07-31T07:49:24;98798.91;;;19.60
45034;BMP280;30771;47.988;-4.186;2023-07-31T07:51:50;98785.72;;;19.63
45034;BMP280;30771;47.988;-4.186;2023-07-31T07:54:15;98804.13;;;19.65
45034;BMP280;30771;47.988;-4.186;2023-07-31T07:56:42;98807.72;;;19.60
45034;BMP280;30771;47.988;-4.186;2023-07-31T07:59:08;98818.09;;;19.62
45034;BMP280;30771;47.988;-4.186;2023-07-31T08:01:33;98811.44;;;19.59
45034;BMP280;30771;47.988;-4.186;2023-07-31T08:03:59;98815.53;;;19.57
45034;BMP280;30771;47.988;-4.186;2023-07-31T08:06:24;98816.44;;;19.52
45034;BMP280;30771;47.988;-4.186;2023-07-31T08:08:50;98834.53;;;19.55
45034;BMP280;30771;47.988;-4.186;2023-07-31T08:11:15;98829.78;;;19.52
45034;BMP280;30771;47.988;-4.186;2023-07-31T08:13:41;98825.34;;;19.48
45034;BMP280;30771;47.988;-4.186;2023-07-31T08:16:06;98839.41;;;19.53
45034;BMP280;30771;47.988;-4.186;2023-07-31T08:18:32;98832.66;;;19.56
45034;BMP280;30771;47.988;-4.186;2023-07-31T08:20:57;98824.13;;;19.54
45034;BMP280;30771;47.988;-4.186;2023-07-31T08:23:23;98831.53;;;19.57
45034;BMP280;30771;47.988;-4.186;2023-07-31T08:25:48;98817.41;;;19.56
45034;BMP280;30771;47.988;-4.186;2023-07-31T08:28:16;98821.81;;;19.61
45034;BMP280;30771;47.988;-4.186;2023-07-31T08:30:41;98815.06;;;19.63
45034;BMP280;30771;47.988;-4.186;2023-07-31T08:33:07;98800.31;;;19.57
45034;BMP280;30771;47.988;-4.186;2023-07-31T08:35:32;98819.66;;;19.63
45034;BMP280;30771;47.988;-4.186;2023-07-31T08:37:57;98816.97;;;19.63
45034;BMP280;30771;47.988;-4.186;2023-07-31T08:40:23;98818.84;;;19.62
45034;BMP280;30771;47.988;-4.186;2023-07-31T08:42:53;98806.31;;;19.63
45034;BMP280;30771;47.988;-4.186;2023-07-31T08:45:19;98801.63;;;19.68
45034;BMP280;30771;47.988;-4.186;2023-07-31T08:47:46;98794.13;;;19.70
45034;BMP280;30771;47.988;-4.186;2023-07-31T08:50:13;98799.75;;;19.69
45034;BMP280;30771;47.988;-4.186;2023-07-31T08:52:38;98800.34;;;19.66
45034;BMP280;30771;47.988;-4.186;2023-07-31T08:55:05;98798.44;;;19.66
45034;BMP280;30771;47.988;-4.186;2023-07-31T08:57:31;98797.88;;;19.69
45034;BMP280;30771;47.988;-4.186;2023-07-31T09:00:00;98794.59;;;19.72
45034;BMP280;30771;47.988;-4.186;2023-07-31T09:02:31;98785.09;;;19.66
45034;BMP280;30771;47.988;-4.186;2023-07-31T09:05:00;98804.66;;;19.75
45034;BMP280;30771;47.988;-4.186;2023-07-31T09:07:26;98796.16;;;19.73
45034;BMP280;30771;47.988;-4.186;2023-07-31T09:09:52;98790.53;;;19.75
45034;BMP280;30771;47.988;-4.186;2023-07-31T09:12:18;98794.47;;;19.77
45034;BMP280;30771;47.988;-4.186;2023-07-31T09:14:45;98787.09;;;19.83
45034;BMP280;30771;47.988;-4.186;2023-07-31T09:17:11;98778.22;;;19.88
45034;BMP280;30771;47.988;-4.186;2023-07-31T09:19:36;98749.91;;;19.86
45034;BMP280;30771;47.988;-4.186;2023-07-31T09:22:05;98757.78;;;19.92
45034;BMP280;30771;47.988;-4.186;2023-07-31T09:24:32;98766.56;;;19.92
45034;BMP280;30771;47.988;-4.186;2023-07-31T09:27:01;98772.72;;;19.92
45034;BMP280;30771;47.988;-4.186;2023-07-31T09:29:28;98788.91;;;19.88
45034;BMP280;30771;47.988;-4.186;2023-07-31T09:31:55;98782.25;;;19.85
45034;BMP280;30771;47.988;-4.186;2023-07-31T09:34:29;98778.78;;;19.84
45034;BMP280;30771;47.988;-4.186;2023-07-31T09:36:56;98784.63;;;19.86
45034;BMP280;30771;47.988;-4.186;2023-07-31T09:39:21;98788.91;;;19.88
45034;BMP280;30771;47.988;-4.186;2023-07-31T09:41:54;98778.22;;;19.88
45034;BMP280;30771;47.988;-4.186;2023-07-31T09:44:20;98783.56;;;19.88
45034;BMP280;30771;47.988;-4.186;2023-07-31T09:46:46;98775.00;;;19.85
45034;BMP280;30771;47.988;-4.186;2023-07-31T09:49:12;98778.47;;;19.86
45034;BMP280;30771;47.988;-4.186;2023-07-31T09:51:40;98781.94;;;19.86
45034;BMP280;30771;47.988;-4.186;2023-07-31T09:56:38;98783.47;;;19.79
45034;BMP280;30771;47.988;-4.186;2023-07-31T09:59:04;98772.19;;;19.82
45034;BMP280;30771;47.988;-4.186;2023-07-31T10:01:30;98771.38;;;19.81
45034;BMP280;30771;47.988;-4.186;2023-07-31T10:03:57;98768.72;;;19.81
45034;BMP280;30771;47.988;-4.186;2023-07-31T10:06:24;98759.09;;;19.80
45034;BMP280;30771;47.988;-4.186;2023-07-31T10:08:51;98754.44;;;19.86
45034;BMP280;30771;47.988;-4.186;2023-07-31T10:11:18;98760.91;;;19.85
45034;BMP280;30771;47.988;-4.186;2023-07-31T10:13:45;98753.03;;;19.88
45034;BMP280;30771;47.988;-4.186;2023-07-31T10:16:11;98754.31;;;19.91
45034;BMP280;30771;47.988;-4.186;2023-07-31T10:18:38;98750.09;;;19.90
45034;BMP280;30771;47.988;-4.186;2023-07-31T10:21:05;98745.63;;;19.85
45034;BMP280;30771;47.988;-4.186;2023-07-31T10:23:31;98748.31;;;19.85
45034;BMP280;30771;47.988;-4.186;2023-07-31T10:25:57;98754.75;;;19.84
45034;BMP280;30771;47.988;-4.186;2023-07-31T10:28:24;98740.59;;;19.84
45034;BMP280;30771;47.988;-4.186;2023-07-31T10:30:50;98750.81;;;19.82
45034;BMP280;30771;47.988;-4.186;2023-07-31T10:33:17;98733.69;;;19.83
45034;BMP280;30771;47.988;-4.186;2023-07-31T10:35:43;98737.94;;;19.84
45034;BMP280;30771;47.988;-4.186;2023-07-31T10:38:12;98735.13;;;19.89
45034;BMP280;30771;47.988;-4.186;2023-07-31T10:40:38;98730.41;;;19.86
45034;BMP280;30771;47.988;-4.186;2023-07-31T10:43:05;98727.59;;;19.91
45034;BMP280;30771;47.988;-4.186;2023-07-31T10:48:02;98711.59;;;19.91
45034;BMP280;30771;47.988;-4.186;2023-07-31T10:50:29;98726.03;;;19.90
45034;BMP280;30771;47.988;-4.186;2023-07-31T10:52:56;98720.69;;;19.90
45034;BMP280;30771;47.988;-4.186;2023-07-31T10:57:57;98709.03;;;19.86
45034;BMP280;30771;47.988;-4.186;2023-07-31T11:00:26;98710.91;;;19.85
45034;BMP280;30771;47.988;-4.186;2023-07-31T11:03:02;98706.97;;;19.83
45034;BMP280;30771;47.988;-4.186;2023-07-31T11:08:17;98713.72;;;19.80
45034;BMP280;30771;47.988;-4.186;2023-07-31T11:10:45;98701.94;;;19.81
45034;BMP280;30771;47.988;-4.186;2023-07-31T11:13:11;98699.28;;;19.81
45034;BMP280;30771;47.988;-4.186;2023-07-31T11:15:37;98696.59;;;19.81
45034;BMP280;30771;47.988;-4.186;2023-07-31T11:18:03;98687.78;;;19.81
45034;BMP280;30771;47.988;-4.186;2023-07-31T11:20:31;98682.00;;;19.79
45034;BMP280;30771;47.988;-4.186;2023-07-31T11:23:06;98675.38;;;19.76
45034;BMP280;30771;47.988;-4.186;2023-07-31T11:25:32;98657.00;;;19.75
45034;BMP280;30771;47.988;-4.186;2023-07-31T11:28:03;98656.41;;;19.78
45034;BMP280;30771;47.988;-4.186;2023-07-31T11:30:28;98657.16;;;19.78
45034;BMP280;30771;47.988;-4.186;2023-07-31T11:32:55;98654.50;;;19.78
45034;BMP280;30771;47.988;-4.186;2023-07-31T11:35:21;98648.38;;;19.78
45034;BMP280;30771;47.988;-4.186;2023-07-31T11:37:47;98666.56;;;19.76
45034;BMP280;30771;47.988;-4.186;2023-07-31T11:40:14;98652.06;;;19.68
45034;BMP280;30771;47.988;-4.186;2023-07-31T11:42:40;98640.63;;;19.68
45034;BMP280;30771;47.988;-4.186;2023-07-31T11:45:07;98642.19;;;19.69
45034;BMP280;30771;47.988;-4.186;2023-07-31T11:47:34;98636.56;;;19.70
45034;BMP280;30771;47.988;-4.186;2023-07-31T11:50:00;98631.50;;;19.69
45034;BMP280;30771;47.988;-4.186;2023-07-31T11:52:30;98628.56;;;19.70
45034;BMP280;30771;47.988;-4.186;2023-07-31T11:54:57;98621.50;;;19.74
45034;BMP280;30771;47.988;-4.186;2023-07-31T11:57:23;98614.13;;;19.80
45034;BMP280;30771;47.988;-4.186;2023-07-31T11:59:49;98606.28;;;19.83
45034;BMP280;30771;47.988;-4.186;2023-07-31T12:02:17;98607.56;;;19.95
45034;BMP280;30771;47.988;-4.186;2023-07-31T12:04:43;98604.44;;;20.01
45034;BMP280;30771;47.988;-4.186;2023-07-31T12:07:09;98595.16;;;19.99
45034;BMP280;30771;47.988;-4.186;2023-07-31T12:09:34;98615.91;;;20.10
45034;BMP280;30771;47.988;-4.186;2023-07-31T12:12:00;98618.13;;;20.08
45034;BMP280;30771;47.988;-4.186;2023-07-31T12:14:27;98619.09;;;20.12
45034;BMP280;30771;47.988;-4.186;2023-07-31T12:17:09;98624.44;;;20.12
45034;BMP280;30771;47.988;-4.186;2023-07-31T12:19:34;98604.47;;;20.10
45034;BMP280;30771;47.988;-4.186;2023-07-31T12:22:00;98623.78;;;20.15
45034;BMP280;30771;47.988;-4.186;2023-07-31T12:24:26;98617.50;;;20.20
45034;BMP280;30771;47.988;-4.186;2023-07-31T12:26:51;98617.69;;;20.23
45034;BMP280;30771;47.988;-4.186;2023-07-31T12:29:18;98627.91;;;20.21
45034;BMP280;30771;47.988;-4.186;2023-07-31T12:31:43;98624.63;;;20.24
45034;BMP280;30771;47.988;-4.186;2023-07-31T12:34:16;98614.88;;;20.28
45034;BMP280;30771;47.988;-4.186;2023-07-31T12:36:42;98632.63;;;20.33
45034;BMP280;30771;47.988;-4.186;2023-07-31T12:39:08;98630.41;;;20.26
45034;BMP280;30771;47.988;-4.186;2023-07-31T12:41:33;98626.31;;;20.20
45034;BMP280;30771;47.988;-4.186;2023-07-31T12:43:59;98634.81;;;20.22
45034;BMP280;30771;47.988;-4.186;2023-07-31T12:46:24;98644.91;;;20.25
45034;BMP280;30771;47.988;-4.186;2023-07-31T12:48:49;98629.78;;;20.21
45034;BMP280;30771;47.988;-4.186;2023-07-31T12:51:15;98645.22;;;20.24
45034;BMP280;30771;47.988;-4.186;2023-07-31T12:53:40;98639.69;;;20.20
45034;BMP280;30771;47.988;-4.186;2023-07-31T12:56:06;98651.50;;;20.19
45034;BMP280;30771;47.988;-4.186;2023-07-31T12:58:31;98653.72;;;20.17
45034;BMP280;30771;47.988;-4.186;2023-07-31T13:00:56;98653.50;;;20.14
45034;BMP280;30771;47.988;-4.186;2023-07-31T13:03:22;98649.09;;;20.09
45034;BMP280;30771;47.988;-4.186;2023-07-31T13:05:47;98642.97;;;20.09
45034;BMP280;30771;47.988;-4.186;2023-07-31T13:08:13;98647.53;;;20.08
45034;BMP280;30771;47.988;-4.186;2023-07-31T13:10:40;98636.06;;;20.16
45034;BMP280;30771;47.988;-4.186;2023-07-31T13:13:06;98628.69;;;20.22
45034;BMP280;30771;47.988;-4.186;2023-07-31T13:15:31;98635.75;;;20.26
45034;BMP280;30771;47.988;-4.186;2023-07-31T13:17:57;98622.22;;;20.23
45034;BMP280;30771;47.988;-4.186;2023-07-31T13:20:22;98623.97;;;20.27
45034;BMP280;30771;47.988;-4.186;2023-07-31T13:22:47;98617.22;;;20.30
45034;BMP280;30771;47.988;-4.186;2023-07-31T13:25:13;98623.34;;;20.30
45034;BMP280;30771;47.988;-4.186;2023-07-31T13:27:38;98625.41;;;20.33
45034;BMP280;30771;47.988;-4.186;2023-07-31T13:30:04;98621.47;;;20.31
45034;BMP280;30771;47.988;-4.186;2023-07-31T13:32:30;98619.13;;;20.29
45034;BMP280;30771;47.988;-4.186;2023-07-31T13:34:55;98605.56;;;20.26
45034;BMP280;30771;47.988;-4.186;2023-07-31T13:37:20;98599.16;;;20.27
45034;BMP280;30771;47.988;-4.186;2023-07-31T13:39:46;98602.44;;;20.32
45034;BMP280;30771;47.988;-4.186;2023-07-31T13:42:11;98586.88;;;20.26
45034;BMP280;30771;47.988;-4.186;2023-07-31T13:44:41;98595.66;;;20.35
45034;BMP280;30771;47.988;-4.186;2023-07-31T13:47:07;98580.28;;;20.32
45034;BMP280;30771;47.988;-4.186;2023-07-31T13:49:33;98593.34;;;20.33
45034;BMP280;30771;47.988;-4.186;2023-07-31T13:51:59;98583.59;;;20.37
45034;BMP280;30771;47.988;-4.186;2023-07-31T13:54:25;98586.13;;;20.34
45034;BMP280;30771;47.988;-4.186;2023-07-31T13:56:52;98580.56;;;20.30
45034;BMP280;30771;47.988;-4.186;2023-07-31T13:59:17;98584.53;;;20.24
45034;BMP280;30771;47.988;-4.186;2023-07-31T14:01:43;98584.66;;;20.28
45034;BMP280;30771;47.988;-4.186;2023-07-31T14:04:09;98588.47;;;20.27
45034;BMP280;30771;47.988;-4.186;2023-07-31T14:06:34;98580.28;;;20.23
45034;BMP280;30771;47.988;-4.186;2023-07-31T14:09:00;98572.75;;;20.17
45034;BMP280;30771;47.988;-4.186;2023-07-31T14:11:26;98564.09;;;20.28
45034;BMP280;30771;47.988;-4.186;2023-07-31T14:13:51;98571.63;;;20.26
45034;BMP280;30771;47.988;-4.186;2023-07-31T14:16:17;98564.53;;;20.30
45034;BMP280;30771;47.988;-4.186;2023-07-31T14:18:42;98567.22;;;20.30
45034;BMP280;30771;47.988;-4.186;2023-07-31T14:21:08;98572.75;;;20.34
45034;BMP280;30771;47.988;-4.186;2023-07-31T14:23:34;98560.00;;;20.31
45034;BMP280;30771;47.988;-4.186;2023-07-31T14:25:59;98563.00;;;20.21
45034;BMP280;30771;47.988;-4.186;2023-07-31T14:28:24;98581.34;;;20.22
45034;BMP280;30771;47.988;-4.186;2023-07-31T14:30:50;98559.84;;;20.19
45034;BMP280;30771;47.988;-4.186;2023-07-31T14:33:15;98571.59;;;20.18
45034;BMP280;30771;47.988;-4.186;2023-07-31T14:35:40;98570.88;;;20.17
45034;BMP280;30771;47.988;-4.186;2023-07-31T14:38:06;98557.50;;;20.17
45034;BMP280;30771;47.988;-4.186;2023-07-31T14:40:31;98572.53;;;20.13
45034;BMP280;30771;47.988;-4.186;2023-07-31T14:42:57;98574.13;;;20.14
45034;BMP280;30771;47.988;-4.186;2023-07-31T14:45:22;98544.44;;;20.07
45034;BMP280;30771;47.988;-4.186;2023-07-31T14:47:48;98559.66;;;20.07
45034;BMP280;30771;47.988;-4.186;2023-07-31T14:50:13;98554.31;;;20.07
45034;BMP280;30771;47.988;-4.186;2023-07-31T14:52:39;98521.00;;;20.04
45034;BMP280;30771;47.988;-4.186;2023-07-31T14:55:04;98528.69;;;20.06
45034;BMP280;30771;47.988;-4.186;2023-07-31T14:57:30;98528.22;;;20.04
45034;BMP280;30771;47.988;-4.186;2023-07-31T14:59:55;98526.00;;;20.06
45034;BMP280;30771;47.988;-4.186;2023-07-31T15:02:21;98526.97;;;20.10
45034;BMP280;30771;47.988;-4.186;2023-07-31T15:04:46;98528.41;;;20.07
45034;BMP280;30771;47.988;-4.186;2023-07-31T15:07:11;98531.22;;;20.11
45034;BMP280;30771;47.988;-4.186;2023-07-31T15:09:39;98517.72;;;20.07
45034;BMP280;30771;47.988;-4.186;2023-07-31T15:12:04;98526.00;;;20.06
45034;BMP280;30771;47.988;-4.186;2023-07-31T15:14:30;98522.53;;;20.05
45034;BMP280;30771;47.988;-4.186;2023-07-31T15:16:56;98511.41;;;20.03
45034;BMP280;30771;47.988;-4.186;2023-07-31T15:19:22;98501.97;;;19.97
45034;BMP280;30771;47.988;-4.186;2023-07-31T15:21:48;98520.22;;;20.04
45034;BMP280;30771;47.988;-4.186;2023-07-31T15:24:14;98493.81;;;20.02
45034;BMP280;30771;47.988;-4.186;2023-07-31T15:26:39;98485.31;;;20.00
45034;BMP280;30771;47.988;-4.186;2023-07-31T15:29:07;98487.22;;;20.00
45034;BMP280;30771;47.988;-4.186;2023-07-31T15:31:41;98483.75;;;19.99
45034;BMP280;30771;47.988;-4.186;2023-07-31T15:34:07;98490.50;;;19.97
45034;BMP280;30771;47.988;-4.186;2023-07-31T15:36:32;98478.25;;;19.96
45034;BMP280;30771;47.988;-4.186;2023-07-31T15:38:58;98467.41;;;19.92
45034;BMP280;30771;47.988;-4.186;2023-07-31T15:41:23;98468.69;;;19.95
45034;BMP280;30771;47.988;-4.186;2023-07-31T15:43:50;98482.03;;;19.95
45034;BMP280;30771;47.988;-4.186;2023-07-31T15:46:16;98467.88;;;19.94
45034;BMP280;30771;47.988;-4.186;2023-07-31T15:48:42;98474.66;;;19.92
45034;BMP280;30771;47.988;-4.186;2023-07-31T15:51:07;98475.09;;;19.93
45034;BMP280;30771;47.988;-4.186;2023-07-31T15:53:33;98472.28;;;19.90
45034;BMP280;30771;47.988;-4.186;2023-07-31T15:55:58;98467.56;;;19.87
45034;BMP280;30771;47.988;-4.186;2023-07-31T15:58:24;98477.13;;;19.88
45034;BMP280;30771;47.988;-4.186;2023-07-31T16:00:49;98472.44;;;19.85
45034;BMP280;30771;47.988;-4.186;2023-07-31T16:03:14;98466.78;;;19.78
45034;BMP280;30771;47.988;-4.186;2023-07-31T16:05:40;98475.25;;;19.80
45034;BMP280;30771;47.988;-4.186;2023-07-31T16:08:07;98474.81;;;19.78
45034;BMP280;30771;47.988;-4.186;2023-07-31T16:10:32;98464.75;;;19.75
45034;BMP280;30771;47.988;-4.186;2023-07-31T16:12:58;98457.31;;;19.72
45034;BMP280;30771;47.988;-4.186;2023-07-31T16:15:23;98452.63;;;19.69
45034;BMP280;30771;47.988;-4.186;2023-07-31T16:17:48;98444.31;;;19.70
45034;BMP280;30771;47.988;-4.186;2023-07-31T16:20:14;98436.09;;;19.67
45034;BMP280;30771;47.988;-4.186;2023-07-31T16:22:39;98432.66;;;19.66
45034;BMP280;30771;47.988;-4.186;2023-07-31T16:25:05;98427.50;;;19.70
45034;BMP280;30771;47.988;-4.186;2023-07-31T16:27:30;98412.88;;;19.67
45034;BMP280;30771;47.988;-4.186;2023-07-31T16:29:56;98409.41;;;19.67
45034;BMP280;30771;47.988;-4.186;2023-07-31T16:32:26;98415.88;;;19.66
45034;BMP280;30771;47.988;-4.186;2023-07-31T16:34:51;98404.41;;;19.65
45034;BMP280;30771;47.988;-4.186;2023-07-31T16:37:17;98391.03;;;19.57
45034;BMP280;30771;47.988;-4.186;2023-07-31T16:39:42;98387.88;;;19.63
45034;BMP280;30771;47.988;-4.186;2023-07-31T16:42:11;98384.28;;;19.59
45034;BMP280;30771;47.988;-4.186;2023-07-31T16:44:37;98360.88;;;19.56
45034;BMP280;30771;47.988;-4.186;2023-07-31T16:47:02;98362.63;;;19.61
45034;BMP280;30771;47.988;-4.186;2023-07-31T16:49:28;98364.22;;;19.62
45034;BMP280;30771;47.988;-4.186;2023-07-31T16:51:53;98334.34;;;19.60
45034;BMP280;30771;47.988;-4.186;2023-07-31T16:54:18;98353.03;;;19.60
45034;BMP280;30771;47.988;-4.186;2023-07-31T16:56:44;98330.91;;;19.59
45034;BMP280;30771;47.988;-4.186;2023-07-31T16:59:09;98327.16;;;19.60
45034;BMP280;30771;47.988;-4.186;2023-07-31T17:01:34;98332.47;;;19.60
45034;BMP280;30771;47.988;-4.186;2023-07-31T17:04:00;98331.69;;;19.60
45034;BMP280;30771;47.988;-4.186;2023-07-31T17:06:28;98312.53;;;19.58
45034;BMP280;30771;47.988;-4.186;2023-07-31T17:08:53;98311.13;;;19.60
45034;BMP280;30771;47.988;-4.186;2023-07-31T17:11:20;98320.22;;;19.59
45034;BMP280;30771;47.988;-4.186;2023-07-31T17:13:45;98308.28;;;19.57
45034;BMP280;30771;47.988;-4.186;2023-07-31T17:16:11;98321.31;;;19.58
45034;BMP280;30771;47.988;-4.186;2023-07-31T17:18:36;98313.94;;;19.55
45034;BMP280;30771;47.988;-4.186;2023-07-31T17:21:01;98314.88;;;19.59
45034;BMP280;30771;47.988;-4.186;2023-07-31T17:23:27;98316.00;;;19.58
45034;BMP280;30771;47.988;-4.186;2023-07-31T17:25:52;98305.16;;;19.55
45034;BMP280;30771;47.988;-4.186;2023-07-31T17:28:18;98308.13;;;19.62
45034;BMP280;30771;47.988;-4.186;2023-07-31T17:30:43;98307.19;;;19.58
45034;BMP280;30771;47.988;-4.186;2023-07-31T17:33:08;98307.50;;;19.56
45034;BMP280;30771;47.988;-4.186;2023-07-31T17:35:34;98301.41;;;19.56
45034;BMP280;30771;47.988;-4.186;2023-07-31T17:37:59;98308.13;;;19.62
45034;BMP280;30771;47.988;-4.186;2023-07-31T17:40:25;98332.16;;;19.62
45034;BMP280;30771;47.988;-4.186;2023-07-31T17:42:50;98319.78;;;19.57
45034;BMP280;30771;47.988;-4.186;2023-07-31T17:45:17;98320.53;;;19.58
45034;BMP280;30771;47.988;-4.186;2023-07-31T17:47:43;98332.31;;;19.57
45034;BMP280;30771;47.988;-4.186;2023-07-31T17:50:09;98337.97;;;19.55
45034;BMP280;30771;47.988;-4.186;2023-07-31T17:52:35;98325.41;;;19.56
45034;BMP280;30771;47.988;-4.186;2023-07-31T17:55:00;98328.09;;;19.56
45034;BMP280;30771;47.988;-4.186;2023-07-31T17:57:26;98341.28;;;19.52
45034;BMP280;30771;47.988;-4.186;2023-07-31T17:59:51;98334.06;;;19.53
45034;BMP280;30771;47.988;-4.186;2023-07-31T18:02:18;98311.25;;;19.47
45034;BMP280;30771;47.988;-4.186;2023-07-31T18:04:43;98320.22;;;19.51
45034;BMP280;30771;47.988;-4.186;2023-07-31T18:07:09;98324.91;;;19.54
45034;BMP280;30771;47.988;-4.186;2023-07-31T18:09:34;98324.19;;;19.53
45034;BMP280;30771;47.988;-4.186;2023-07-31T18:12:00;98319.75;;;19.49
45034;BMP280;30771;47.988;-4.186;2023-07-31T18:14:25;98302.97;;;19.48
45034;BMP280;30771;47.988;-4.186;2023-07-31T18:16:53;98305.66;;;19.48
45034;BMP280;30771;47.988;-4.186;2023-07-31T18:19:18;98298.41;;;19.40
45034;BMP280;30771;47.988;-4.186;2023-07-31T18:21:43;98320.88;;;19.48
45034;BMP280;30771;47.988;-4.186;2023-07-31T18:24:09;98320.09;;;19.39
45034;BMP280;30771;47.988;-4.186;2023-07-31T18:26:34;98326.81;;;19.45
45034;BMP280;30771;47.988;-4.186;2023-07-31T18:29:01;98320.53;;;19.41
45034;BMP280;30771;47.988;-4.186;2023-07-31T18:31:27;98300.91;;;19.37
45034;BMP280;30771;47.988;-4.186;2023-07-31T18:33:52;98306.88;;;19.42
45034;BMP280;30771;47.988;-4.186;2023-07-31T18:36:18;98300.28;;;19.40
45034;BMP280;30771;47.988;-4.186;2023-07-31T18:38:43;98310.16;;;19.39
45034;BMP280;30771;47.988;-4.186;2023-07-31T18:41:09;98314.25;;;19.37
45034;BMP280;30771;47.988;-4.186;2023-07-31T18:43:34;98318.50;;;19.38
45034;BMP280;30771;47.988;-4.186;2023-07-31T18:45:59;98319.56;;;19.37
45034;BMP280;30771;47.988;-4.186;2023-07-31T18:48:25;98336.88;;;19.39
45034;BMP280;30771;47.988;-4.186;2023-07-31T18:50:51;98338.75;;;19.39
45034;BMP280;30771;47.988;-4.186;2023-07-31T18:53:16;98331.66;;;19.34
45034;BMP280;30771;47.988;-4.186;2023-07-31T18:55:44;98333.72;;;19.37
45034;BMP280;30771;47.988;-4.186;2023-07-31T18:58:09;98348.94;;;19.37
45034;BMP280;30771;47.988;-4.186;2023-07-31T19:00:35;98336.88;;;19.31
45034;BMP280;30771;47.988;-4.186;2023-07-31T19:03:00;98356.47;;;19.35
45034;BMP280;30771;47.988;-4.186;2023-07-31T19:05:25;98374.38;;;19.34
45034;BMP280;30771;47.988;-4.186;2023-07-31T19:07:51;98374.69;;;19.33
45034;BMP280;30771;47.988;-4.186;2023-07-31T19:10:16;98370.41;;;19.32
45034;BMP280;30771;47.988;-4.186;2023-07-31T19:12:42;98368.25;;;19.34
45034;BMP280;30771;47.988;-4.186;2023-07-31T19:15:08;98373.09;;;19.32
45034;BMP280;30771;47.988;-4.186;2023-07-31T19:17:35;98370.94;;;19.34
45034;BMP280;30771;47.988;-4.186;2023-07-31T19:20:03;98387.56;;;19.31
45034;BMP280;30771;47.988;-4.186;2023-07-31T19:22:30;98396.03;;;19.33
45034;BMP280;30771;47.988;-4.186;2023-07-31T19:24:56;98401.97;;;19.30
45034;BMP280;30771;47.988;-4.186;2023-07-31T19:27:22;98402.59;;;19.27
45034;BMP280;30771;47.988;-4.186;2023-07-31T19:29:47;98460.81;;;19.25
45034;BMP280;30771;47.988;-4.186;2023-07-31T19:32:13;98469.94;;;19.24
45034;BMP280;30771;47.988;-4.186;2023-07-31T19:34:40;98477.31;;;19.27
45034;BMP280;30771;47.988;-4.186;2023-07-31T19:37:05;98476.03;;;19.24
45034;BMP280;30771;47.988;-4.186;2023-07-31T19:39:31;98476.38;;;19.23
45034;BMP280;30771;47.988;-4.186;2023-07-31T19:41:56;98470.56;;;19.21
45034;BMP280;30771;47.988;-4.186;2023-07-31T19:44:21;98466.94;;;19.17
45034;BMP280;30771;47.988;-4.186;2023-07-31T19:46:48;98477.31;;;19.18
45034;BMP280;30771;47.988;-4.186;2023-07-31T19:49:13;98480.91;;;19.22
45034;BMP280;30771;47.988;-4.186;2023-07-31T19:51:38;98482.63;;;19.18
45034;BMP280;30771;47.988;-4.186;2023-07-31T19:54:04;98474.28;;;19.20
45034;BMP280;30771;47.988;-4.186;2023-07-31T19:56:29;98498.66;;;19.18
45034;BMP280;30771;47.988;-4.186;2023-07-31T19:58:55;98493.44;;;19.13
45034;BMP280;30771;47.988;-4.186;2023-07-31T20:01:20;98494.69;;;19.16